Fort Chipewyan Airport
CYPY : rendu visible

Aérodrome :











RETROUVEZ-NOUS SUR...

 
LOGIN :

S'inscrire | Disclaimer

   EN    FR    IT 

 









Légende :    VFR   VFR Marginal   IFR   IFR Intensif   IFR Très Intensif
Visi : 
Plafond : 
>= 8 km
>= 3000ft
5 à 8 km
1000 à 3000 ft
1500m à 5 km
500 à 1000 ft
800 à 1500m
200 à 500 ft
< 800m
< 200 ft
Symboles :   Orages  Brouillard  Fortes neiges  Fortes précipitations  Vent > 20 kt






- Altitude de l'aérodrome : 761 ft
- Code IATA : YPY


CYPY - Fort Chipewyan

DERNIER METAR :
  • 241600Z AUTO 11004KT 060V130 4SM -SN OVC025 M17/M20 A3036 RMK SLP308

METARs EXPIRÉS :
  • 241540Z AUTO 07004KT 5SM -SN OVC025 M17/M20 A3035 RMK SLP303
  • 241516Z AUTO 06004KT 8SM -SN SCT013 OVC025 M16/M19 A3034 RMK SLP301
  • 241500Z AUTO 07005KT 9SM -SN OVC013 M16/M19 A3033 RMK SLP298
  • 241422Z AUTO 01005KT 320V030 9SM -SN BKN015 OVC028 M16/M19 A3030 RMK SLP288
  • 241400Z AUTO 02005KT 9SM -SN OVC028 M16/M19 A3029 RMK SLP285

TAF TAF CYPY
Valide du 24 à 13h jusqu'au 25 à 01h UTC


241238Z 2413/2501 VRB03KT P6SM SCT020
TEMPO 2413/2501 5SM -SN BKN020 RMK FCST BASED ON AUTO OBS. NXT FCST BY 241800Z



MET'MAP, la Météo Aéronautique d'un coup d'oeil ! - Copyright ORBIFLY Décembre 2007 - Disclaimer

ORBIFLY MET'MAP TEAM :

Programmation & Développement : Alexandra Zaïnal
Sur une idée originale de : Baudouin d'Aumeries
Assistance à la programmation : Marc-Olivier Méhu
Soutien technique & logistique : Manuel Goepfert

Contact : metmap@orbifly.com




SOURCES & CREDITS :

   NOAA       Earth
Advisory